Comanche, Texas
Current Conditions -  °F | °C
As of 6:55 AM on Friday 19 Dec 2014 (Local Time) from KMKN Reporting Station
Haze Haze  
Wind Chill: 42°   Ceiling: 400
Heat Index: 44°   Visibility: 5mi
Dew Point: 44°   Wind: 5mph
Humidity: 100%   Direction: 360°N
Pressure: 30.15"   Gusts: NA
Location:  31.9°N, 98.6°W
Report Text: KMKN 191255Z AUTO 36004KT 5SM BR OVC004 07/07 A3015 RMK AO2 T00670067
Loading
Personal Weather Stations






























Interactive Weather Map New forecast layout! Learn more

10-Day Weather Forecast

Advertisements
Track Severe Weather on mobile